Time;durP1;ratioP1;P1;durP2;ratioP2;P2;SDS_P1;SDS_P2;PMS_P1;PMS_P2;Temp;Humidity;BMP_temperature;BMP_pressure;BME280_temperature;BME280_humidity;BME280_pressure;Samples;Min_cycle;Max_cycle;Signal;HPM_P1;HPM_P2
2022/01/19 00:01:35;;;;;;;83.73;48.83;;;;;;;3.85;81.12;103014.22;5048904;28;20144;-84
2022/01/19 00:04:02;;;;;;;82.67;51.50;;;;;;;4.35;81.44;103116.53;5031383;28;20051;-85
2022/01/19 00:06:29;;;;;;;80.60;50.20;;;;;;;4.19;81.16;103091.47;5031396;28;20427;-84
2022/01/19 00:08:56;;;;;;;88.07;48.97;;;;;;;4.02;80.69;103084.81;5030011;28;20214;-85
2022/01/19 00:11:24;;;;;;;90.47;51.93;;;;;;;4.22;81.61;103133.47;5011414;28;20102;-84
2022/01/19 00:13:51;;;;;;;80.97;53.27;;;;;;;4.25;81.25;103143.94;5011413;28;20053;-84
2022/01/19 00:16:18;;;;;;;78.93;50.57;;;;;;;3.14;81.24;102951.84;5028047;28;20152;-84
2022/01/19 00:18:45;;;;;;;80.73;51.03;;;;;;;4.10;81.38;103120.59;5027895;28;20103;-84
2022/01/19 00:21:12;;;;;;;87.27;53.20;;;;;;;4.21;81.09;103134.38;5011303;28;20500;-84
2022/01/19 00:23:39;;;;;;;88.33;52.63;;;;;;;3.14;81.54;102943.97;5011319;28;20135;-85
2022/01/19 00:26:10;;;;;;;82.33;52.37;;;;;;;4.36;81.39;103141.06;5011101;28;20053;-83
2022/01/19 00:28:48;;;;;;;86.10;51.33;;;;;;;3.99;80.95;103077.00;5011330;28;20053;-82
2022/01/19 00:31:15;;;;;;;86.97;54.03;;;;;;;2.89;81.23;102887.59;5011782;28;20045;-85
2022/01/19 00:33:44;;;;;;;90.57;52.90;;;;;;;2.89;81.44;102903.34;5011965;28;20071;-83
2022/01/19 00:36:11;;;;;;;87.83;53.63;;;;;;;4.32;82.06;103145.53;5011512;28;20077;-84
2022/01/19 00:38:37;;;;;;;102.37;51.77;;;;;;;4.33;81.81;103136.75;5011348;28;20088;-84
2022/01/19 00:41:04;;;;;;;92.30;54.47;;;;;;;4.37;81.92;103133.16;5010830;28;20052;-84
2022/01/19 00:43:33;;;;;;;76.90;51.13;;;;;;;4.36;82.04;103141.91;5010853;28;20111;-84
2022/01/19 00:46:00;;;;;;;89.77;51.40;;;;;;;4.34;82.06;103124.44;5011036;28;20073;-83
2022/01/19 00:48:27;;;;;;;105.23;53.43;;;;;;;4.18;81.63;103087.13;5010830;28;20081;-83
2022/01/19 00:50:56;;;;;;;84.93;53.43;;;;;;;4.35;81.51;103111.28;5010830;28;20080;-84
2022/01/19 00:53:23;;;;;;;92.07;54.47;;;;;;;4.37;81.38;103111.22;5027830;28;20048;-82
2022/01/19 00:55:52;;;;;;;101.67;54.37;;;;;;;4.37;81.77;103117.38;5028749;28;20519;-81
2022/01/19 00:58:19;;;;;;;94.97;54.00;;;;;;;3.85;81.45;103013.38;5029130;28;20439;-85
2022/01/19 01:00:45;;;;;;;85.83;52.50;;;;;;;4.36;81.26;103089.31;5028158;28;20408;-82
2022/01/19 01:03:15;;;;;;;83.07;53.63;;;;;;;3.98;81.76;103038.50;5022837;28;20049;-84
2022/01/19 01:05:42;;;;;;;88.67;53.27;;;;;;;4.41;82.58;103113.75;5026408;28;20142;-84
2022/01/19 01:08:10;;;;;;;87.73;56.27;;;;;;;4.38;82.55;103097.19;5026750;28;20398;-84
2022/01/19 01:10:42;;;;;;;102.83;56.17;;;;;;;3.87;83.09;103021.22;5027713;28;20080;-82
2022/01/19 01:16:17;;;;;;;108.67;53.00;;;;;;;4.43;83.36;103132.13;5019153;28;20107;-84
2022/01/19 01:18:44;;;;;;;98.40;53.00;;;;;;;4.42;83.20;103120.75;5026151;28;20057;-84
2022/01/19 01:21:11;;;;;;;90.93;53.37;;;;;;;4.57;82.27;103135.31;5025736;28;20057;-84
2022/01/19 01:23:38;;;;;;;86.80;53.47;;;;;;;4.48;82.45;103136.38;5026481;28;20056;-85
2022/01/19 01:26:07;;;;;;;109.23;54.30;;;;;;;3.43;81.96;102948.59;5026291;28;20053;-84
2022/01/19 01:28:34;;;;;;;95.73;52.43;;;;;;;4.56;82.06;103144.09;5026201;28;20128;-84
2022/01/19 01:31:00;;;;;;;92.97;52.67;;;;;;;4.48;82.35;103149.53;5027289;28;20107;-84
2022/01/19 01:33:27;;;;;;;100.13;54.97;;;;;;;3.49;83.19;102984.38;5025806;28;20057;-84
2022/01/19 01:35:56;;;;;;;105.17;57.07;;;;;;;3.62;83.74;103006.00;5025711;28;20143;-84
2022/01/19 01:38:23;;;;;;;95.90;56.53;;;;;;;3.58;83.98;102994.69;5025751;28;20471;-84
2022/01/19 01:41:12;;;;;;;98.80;59.30;;;;;;;3.90;84.32;103031.66;5027202;28;20072;-84
2022/01/19 01:43:39;;;;;;;95.75;55.15;;;;;;;4.49;83.54;103127.63;5025899;28;20057;-84
2022/01/19 01:46:42;;;;;;;102.83;55.33;;;;;;;4.59;83.41;103124.78;5025830;28;20045;-85
2022/01/19 01:48:58;;;;;;;93.37;55.97;;;;;;;4.09;83.21;103032.13;5026731;28;20488;-84
2022/01/19 01:54:10;;;;;;;94.77;55.53;;;;;;;4.53;83.50;103095.97;5026481;28;20053;-84
2022/01/19 01:56:37;;;;;;;92.57;58.20;;;;;;;4.47;82.99;103076.81;5027105;28;20397;-83
2022/01/19 01:59:04;;;;;;;89.67;56.17;;;;;;;4.72;83.23;103106.00;5025160;28;20140;-84
2022/01/19 02:01:31;;;;;;;96.63;56.73;;;;;;;4.60;82.79;103065.97;5027268;28;20050;-82
2022/01/19 02:03:58;;;;;;;110.13;57.97;;;;;;;4.58;82.87;103052.84;5045276;28;20072;-84
2022/01/19 02:06:32;;;;;;;85.73;55.27;;;;;;;4.65;82.97;103049.16;5028890;28;20412;-84
2022/01/19 02:23:49;;;;;;;101.13;57.90;;;;;;;4.20;83.45;102977.50;5046541;28;20134;-84
2022/01/19 02:26:11;;;;;;;100.83;58.27;;;;;;;4.18;83.74;102979.34;5043261;28;20343;-83
2022/01/19 02:42:10;;;;;;;91.47;55.13;;;;;;;4.38;83.54;102956.03;5046359;28;20076;-84
2022/01/19 02:49:46;;;;;;;90.30;53.53;;;;;;;4.78;82.96;103018.16;5047622;28;20099;-82
2022/01/19 02:52:16;;;;;;;82.80;52.67;;;;;;;4.89;83.76;103021.34;5030022;28;20049;-83
2022/01/19 02:54:44;;;;;;;92.90;57.67;;;;;;;4.89;83.50;103018.72;5046451;28;20484;-83
2022/01/19 02:57:13;;;;;;;89.23;54.23;;;;;;;4.83;83.25;102999.59;5045340;28;20128;-83
2022/01/19 03:06:30;;;;;;;93.72;55.47;;;;;;;4.85;83.68;103011.81;5046653;28;20117;-84
2022/01/19 03:10:52;;;;;;;89.60;53.90;;;;;;;4.74;83.74;102974.41;5045815;28;20488;-85
2022/01/19 03:13:19;;;;;;;87.33;52.50;;;;;;;4.93;83.59;103012.47;5045149;28;20083;-84
2022/01/19 03:15:46;;;;;;;84.93;52.67;;;;;;;5.00;83.78;103017.56;5031346;28;20052;-82
2022/01/19 03:18:13;;;;;;;89.93;53.10;;;;;;;4.84;83.33;102970.59;5051648;28;20049;-84
2022/01/19 03:20:40;;;;;;;93.50;54.63;;;;;;;5.09;83.01;103014.69;5051299;28;20106;-84
2022/01/19 03:23:18;;;;;;;89.55;53.97;;;;;;;4.79;83.44;102969.00;5048517;28;20076;-84
2022/01/19 03:25:45;;;;;;;87.77;52.00;;;;;;;4.92;83.38;102983.56;5031648;28;20387;-83
2022/01/19 03:28:12;;;;;;;77.78;51.80;;;;;;;5.14;83.00;103015.44;5048587;28;20084;-82
2022/01/19 03:30:39;;;;;;;81.93;51.90;;;;;;;5.21;82.71;103008.22;5050243;28;20071;-83
2022/01/19 03:33:06;;;;;;;76.90;46.83;;;;;;;5.08;82.46;102994.53;5049536;28;20080;-83
2022/01/19 03:35:33;;;;;;;87.37;52.23;;;;;;;5.05;82.89;102995.50;5031589;28;20040;-84
2022/01/19 03:38:00;;;;;;;76.10;49.13;;;;;;;4.94;82.56;102955.44;5049857;28;20049;-84
2022/01/19 03:40:26;;;;;;;78.43;48.72;;;;;;;5.20;82.46;103010.00;5031610;28;20045;-84
2022/01/19 03:42:53;;;;;;;84.75;51.15;;;;;;;5.01;82.71;102987.72;5047987;28;20124;-84
2022/01/19 03:45:22;;;;;;;71.28;45.80;;;;;;;5.19;83.21;103005.63;5031813;28;20099;-84
2022/01/19 03:48:06;;;;;;;76.27;48.57;;;;;;;5.14;82.68;102995.22;5048206;28;20049;-82
2022/01/19 03:50:36;;;;;;;79.70;47.67;;;;;;;5.12;82.83;102990.91;5032037;28;20098;-83
2022/01/19 03:53:03;;;;;;;76.22;48.42;;;;;;;5.06;82.99;102980.56;5047970;28;20059;-85
2022/01/19 03:55:30;;;;;;;73.95;45.38;;;;;;;5.24;82.95;103001.13;5031507;28;20490;-85
2022/01/19 03:57:56;;;;;;;73.82;47.47;;;;;;;5.20;82.24;102978.41;5031594;28;20076;-84
2022/01/19 04:00:26;;;;;;;76.73;47.87;;;;;;;5.26;82.58;102993.16;5031656;28;20152;-83
2022/01/19 04:02:52;;;;;;;76.65;46.17;;;;;;;4.61;82.25;102891.41;5031573;28;20053;-83
2022/01/19 04:05:27;;;;;;;75.53;47.97;;;;;;;5.18;82.70;102987.25;5031266;28;20134;-83
2022/01/19 04:07:55;;;;;;;78.32;47.45;;;;;;;5.16;83.23;102992.56;5031033;28;20057;-83
2022/01/19 04:10:22;;;;;;;79.83;45.93;;;;;;;4.65;83.08;102906.22;5037620;28;20053;-83
2022/01/19 04:13:07;;;;;;;83.80;51.60;;;;;;;4.87;82.98;102933.66;5031496;28;20049;-83
2022/01/19 04:15:36;;;;;;;82.95;48.45;;;;;;;4.82;82.86;102932.06;5048567;28;20583;-84
2022/01/19 04:18:04;;;;;;;85.53;49.83;;;;;;;5.00;82.41;102923.69;5048612;28;20045;-84
2022/01/19 04:20:37;;;;;;;80.68;50.17;;;;;;;5.23;82.41;102972.19;5031349;28;20156;-85
2022/01/19 04:23:04;;;;;;;73.60;48.00;;;;;;;5.29;82.36;102988.69;5030699;28;20081;-84
2022/01/19 04:25:30;;;;;;;85.33;48.93;;;;;;;4.65;82.17;102880.78;5048442;28;20064;-84
2022/01/19 04:27:57;;;;;;;77.82;47.55;;;;;;;5.33;81.97;102984.16;5048502;28;20045;-83
2022/01/19 04:30:27;;;;;;;74.53;46.33;;;;;;;4.81;81.85;102902.28;5030214;28;20143;-84
2022/01/19 04:35:26;;;;;;;76.63;45.83;;;;;;;5.39;80.86;102984.00;5048487;28;20102;-84
2022/01/19 05:05:06;;;;;;;68.38;45.08;;;;;;;5.40;80.97;102958.53;5017500;28;20129;-82
2022/01/19 05:07:40;;;;;;;73.28;44.78;;;;;;;5.40;80.75;102966.44;4989860;28;20057;-83
2022/01/19 05:15:24;;;;;;;77.20;47.28;;;;;;;5.46;80.56;102963.59;5006618;28;20053;-82
2022/01/19 05:17:51;;;;;;;72.68;44.88;;;;;;;5.00;80.37;102892.09;4989459;28;20072;-82
2022/01/19 05:20:18;;;;;;;71.50;47.60;;;;;;;5.07;80.98;102917.34;5006721;28;20609;-83
2022/01/19 05:22:44;;;;;;;75.15;45.97;;;;;;;5.39;80.96;102962.94;4988952;28;20145;-83
2022/01/19 05:25:11;;;;;;;76.85;47.55;;;;;;;5.21;81.09;102937.13;4989492;28;20140;-84
2022/01/19 05:27:38;;;;;;;77.97;46.28;;;;;;;5.43;80.79;102958.41;4989041;28;20164;-82
2022/01/19 05:30:05;;;;;;;84.28;48.03;;;;;;;5.35;80.72;102941.06;4989573;28;20153;-81
2022/01/19 05:32:32;;;;;;;71.72;44.13;;;;;;;5.40;80.25;102950.63;5006702;28;20213;-82
2022/01/19 05:34:58;;;;;;;75.68;46.03;;;;;;;5.43;80.72;102961.06;4996607;28;20140;-82
2022/01/19 05:37:25;;;;;;;78.15;47.45;;;;;;;5.25;80.72;102922.97;5024651;28;20347;-83
2022/01/19 05:39:52;;;;;;;74.78;47.33;;;;;;;5.21;80.80;102906.38;5014385;28;20152;-83
2022/01/19 05:42:19;;;;;;;71.93;47.15;;;;;;;5.48;80.40;102928.38;4988584;28;20050;-83
2022/01/19 05:44:47;;;;;;;78.70;46.95;;;;;;;5.65;79.46;102959.50;4988840;28;20049;-83
2022/01/19 05:47:17;;;;;;;77.38;47.47;;;;;;;5.55;78.91;102942.25;4989281;28;20087;-84
2022/01/19 05:49:44;;;;;;;79.65;46.08;;;;;;;5.55;79.52;102960.69;4988786;28;20053;-85
2022/01/19 05:52:11;;;;;;;67.90;43.45;;;;;;;5.48;79.45;102938.06;4988325;28;20054;-83
2022/01/19 05:54:38;;;;;;;68.60;45.05;;;;;;;5.06;79.12;102859.44;5010385;28;20128;-82
2022/01/19 05:57:05;;;;;;;72.88;45.80;;;;;;;5.53;79.14;102949.31;5007909;28;20406;-82
2022/01/19 05:59:31;;;;;;;73.57;46.83;;;;;;;5.69;79.09;102947.09;5008001;28;20148;-82
2022/01/19 06:01:58;;;;;;;70.03;43.55;;;;;;;5.62;78.38;102942.94;5025341;28;20049;-84
2022/01/19 06:04:26;;;;;;;74.85;46.15;;;;;;;5.31;78.60;102897.28;5025268;28;20127;-84
2022/01/19 06:06:55;;;;;;;68.18;45.33;;;;;;;5.68;78.63;102946.25;5025700;28;20049;-82
2022/01/19 06:12:10;;;;;;;71.60;45.58;;;;;;;5.71;77.52;102932.97;5025312;28;20049;-82
2022/01/19 06:14:40;;;;;;;71.93;45.15;;;;;;;5.79;78.07;102954.66;5007816;28;20049;-83
2022/01/19 06:17:09;;;;;;;63.45;43.25;;;;;;;5.75;77.41;102945.16;5023933;28;20136;-81
2022/01/19 06:19:36;;;;;;;68.75;45.53;;;;;;;5.27;77.90;102869.34;5024373;28;20049;-82
2022/01/19 06:22:04;;;;;;;70.10;45.50;;;;;;;5.67;78.00;102931.31;5007814;28;20072;-82
2022/01/19 06:24:31;;;;;;;74.10;47.60;;;;;;;5.73;77.70;102941.69;5008114;28;20546;-82
2022/01/19 06:26:58;;;;;;;67.22;46.20;;;;;;;5.46;77.81;102895.09;5007380;28;20128;-83
2022/01/19 06:29:25;;;;;;;70.15;45.95;;;;;;;5.65;78.43;102927.88;5007760;28;20045;-82
2022/01/19 06:31:52;;;;;;;67.68;45.97;;;;;;;5.59;78.04;102911.41;5025237;28;20145;-82
2022/01/19 06:34:19;;;;;;;75.30;47.30;;;;;;;5.71;78.19;102922.41;5007496;28;20045;-84
2022/01/19 06:36:47;;;;;;;70.20;45.15;;;;;;;5.57;78.32;102898.28;5010195;28;20073;-84
2022/01/19 06:39:16;;;;;;;73.57;46.83;;;;;;;5.89;77.46;102926.22;5009671;28;20053;-83
2022/01/19 06:41:43;;;;;;;67.03;45.13;;;;;;;5.85;77.57;102929.91;5025388;28;20132;-83
2022/01/19 06:44:12;;;;;;;75.78;46.63;;;;;;;5.82;78.01;102929.97;5007120;28;20508;-83
2022/01/19 06:46:38;;;;;;;68.78;44.70;;;;;;;5.52;78.28;102884.38;5025065;28;20053;-81
2022/01/19 06:49:05;;;;;;;71.40;47.50;;;;;;;5.79;78.40;102932.72;5007450;28;20053;-81
2022/01/19 06:51:32;;;;;;;66.72;46.80;;;;;;;5.21;78.23;102827.38;5007506;28;20053;-82
2022/01/19 06:53:58;;;;;;;69.10;45.55;;;;;;;5.79;78.51;102930.09;5005264;28;20509;-84
2022/01/19 06:56:25;;;;;;;73.10;46.20;;;;;;;5.78;78.74;102921.31;4991770;28;20509;-82
2022/01/19 06:58:51;;;;;;;69.38;45.05;;;;;;;5.77;78.60;102927.47;4992154;28;20050;-83
2022/01/19 07:01:18;;;;;;;71.15;44.97;;;;;;;5.54;77.93;102882.56;4992098;28;20053;-84
2022/01/19 07:03:46;;;;;;;79.18;46.88;;;;;;;5.77;77.87;102916.09;5005925;28;20061;-84
2022/01/19 07:06:21;;;;;;;68.97;44.15;;;;;;;5.75;78.33;102910.88;5007191;28;20402;-82
2022/01/19 07:08:48;;;;;;;68.80;44.67;;;;;;;5.74;78.89;102919.69;5007141;28;20060;-83
2022/01/19 07:11:15;;;;;;;72.47;46.08;;;;;;;5.76;78.65;102911.75;5027226;28;20049;-82
2022/01/19 07:13:44;;;;;;;69.13;42.53;;;;;;;5.69;78.07;102892.63;5028782;28;20145;-83
2022/01/19 07:16:11;;;;;;;66.47;43.08;;;;;;;5.89;77.42;102917.47;5013259;28;20140;-83
2022/01/19 07:18:38;;;;;;;66.72;43.80;;;;;;;5.83;77.17;102904.50;5005872;28;20048;-82
2022/01/19 07:21:05;;;;;;;74.70;46.35;;;;;;;5.89;76.97;102918.31;5007507;28;20054;-82
2022/01/19 07:23:32;;;;;;;63.90;44.03;;;;;;;5.89;77.06;102920.09;5007447;28;20133;-83
2022/01/19 07:25:58;;;;;;;69.80;45.50;;;;;;;5.84;77.51;102901.78;5006165;28;20230;-81
2022/01/19 07:28:25;;;;;;;71.75;45.80;;;;;;;5.84;77.39;102891.25;5006206;28;20049;-81
2022/01/19 07:30:51;;;;;;;71.47;44.47;;;;;;;5.97;77.69;102911.09;5006467;28;20268;-83
2022/01/19 07:33:18;;;;;;;73.32;46.03;;;;;;;5.96;77.88;102900.56;5007172;28;20054;-83
2022/01/19 07:35:50;;;;;;;65.22;44.08;;;;;;;6.07;77.26;102909.00;5006506;28;20054;-82
2022/01/19 07:38:18;;;;;;;;;;;;;;;6.08;77.09;102909.84;5009528;28;20049;-83
2022/01/19 07:40:45;;;;;;;68.43;45.20;;;;;;;6.03;77.21;102896.81;5006396;28;20299;-83
2022/01/19 07:43:11;;;;;;;76.35;45.35;;;;;;;6.14;76.89;102910.53;5006761;28;20050;-83
2022/01/19 07:45:38;;;;;;;69.80;44.97;;;;;;;6.04;76.60;102897.69;5008729;28;20140;-83
2022/01/19 07:48:07;;;;;;;73.22;45.53;;;;;;;6.16;76.91;102918.38;5007207;28;20136;-83
2022/01/19 07:50:36;;;;;;;72.00;44.80;;;;;;;5.60;77.06;102828.81;5006899;28;20128;-85
2022/01/19 07:53:03;;;;;;;68.65;45.65;;;;;;;6.13;76.94;102898.22;5006884;28;20061;-83
2022/01/19 07:55:33;;;;;;;68.68;44.65;;;;;;;6.11;77.02;102884.22;5006921;28;20045;-83
2022/01/19 07:58:01;;;;;;;70.28;44.17;;;;;;;6.11;76.71;102889.50;5008629;28;20257;-85
2022/01/19 08:00:28;;;;;;;71.40;45.90;;;;;;;5.98;76.56;102880.28;5026095;28;20061;-84
2022/01/19 08:02:55;;;;;;;65.97;44.05;;;;;;;6.25;75.84;102918.06;5042430;28;20072;-84
2022/01/19 08:05:22;;;;;;;69.10;45.35;;;;;;;6.28;76.27;102917.94;5042492;28;20148;-83
2022/01/19 08:07:48;;;;;;;63.70;43.15;;;;;;;6.28;76.31;102917.94;5042549;28;20431;-85
2022/01/19 08:10:15;;;;;;;76.25;46.70;;;;;;;6.27;76.52;102905.69;5042837;28;20049;-83
2022/01/19 08:12:43;;;;;;;70.15;44.20;;;;;;;6.41;76.25;102906.09;5042213;28;20136;-82
2022/01/19 08:15:10;;;;;;;74.85;46.17;;;;;;;6.41;75.43;102905.22;5042116;28;20045;-83
2022/01/19 08:17:37;;;;;;;71.45;44.20;;;;;;;6.39;75.33;102907.06;5025874;28;20511;-84
2022/01/19 08:20:04;;;;;;;70.88;44.28;;;;;;;6.43;75.05;102900.72;5027540;28;20089;-83
2022/01/19 08:22:31;;;;;;;68.05;42.78;;;;;;;6.43;74.32;102900.72;5025886;28;20483;-83
2022/01/19 08:24:58;;;;;;;65.70;43.05;;;;;;;6.13;74.07;102861.31;5022603;28;20511;-82
2022/01/19 08:27:24;;;;;;;66.32;43.55;;;;;;;6.32;74.51;102898.47;5025299;28;20124;-83
2022/01/19 08:29:51;;;;;;;70.78;44.90;;;;;;;6.40;74.38;102900.84;5025277;28;20475;-82
2022/01/19 08:32:18;;;;;;;60.83;43.40;;;;;;;6.41;74.69;102903.44;5025102;28;20057;-84
2022/01/19 08:34:58;;;;;;;66.57;43.95;;;;;;;6.21;74.38;102868.97;5025852;28;20268;-85
2022/01/19 08:37:25;;;;;;;62.47;42.30;;;;;;;6.39;73.79;102901.78;5025799;28;20049;-84
2022/01/19 08:39:53;;;;;;;61.35;43.08;;;;;;;6.33;74.27;102905.47;5025995;28;20423;-82
2022/01/19 08:42:19;;;;;;;66.00;42.97;;;;;;;5.36;73.89;102731.22;5024972;28;20049;-82
2022/01/19 08:44:52;;;;;;;62.53;43.70;;;;;;;6.40;73.61;102900.84;5025854;28;20064;-83
2022/01/19 08:47:20;;;;;;;65.50;44.15;;;;;;;6.27;73.97;102889.00;5026703;28;20077;-82
2022/01/19 08:49:52;;;;;;;64.22;44.63;;;;;;;6.41;73.88;102913.13;5026657;28;20060;-84
2022/01/19 08:52:20;;;;;;;56.78;39.58;;;;;;;6.21;73.19;102868.97;5025216;28;20057;-83
2022/01/19 08:54:47;;;;;;;60.30;43.35;;;;;;;6.50;73.10;102918.06;5025295;28;20432;-82
2022/01/19 08:57:16;;;;;;;59.45;42.08;;;;;;;6.46;72.91;102905.94;5042002;28;20409;-83
2022/01/19 08:59:43;;;;;;;61.58;42.15;;;;;;;6.32;73.07;102897.63;5025373;28;20220;-83
2022/01/19 09:02:10;;;;;;;67.80;44.90;;;;;;;6.45;72.63;102914.75;5023822;28;20146;-84
2022/01/19 09:04:37;;;;;;;65.18;44.28;;;;;;;6.22;72.53;102870.69;5008380;28;20056;-86
2022/01/19 09:07:07;;;;;;;63.60;42.15;;;;;;;6.49;72.56;102905.81;5007622;28;20397;-84
2022/01/19 09:09:34;;;;;;;61.08;43.13;;;;;;;6.43;72.65;102900.72;5011635;28;20049;-85
2022/01/19 09:12:01;;;;;;;63.50;44.35;;;;;;;6.37;72.90;102906.22;5008883;28;20115;-85
2022/01/19 09:14:30;;;;;;;58.88;41.63;;;;;;;6.38;73.42;102913.22;5008132;28;20045;-84
2022/01/19 09:16:56;;;;;;;68.10;44.70;;;;;;;6.29;73.28;102893.31;5008264;28;20053;-85
2022/01/19 09:19:23;;;;;;;61.22;42.97;;;;;;;5.84;72.59;102801.63;5009894;28;20059;-82
2022/01/19 09:21:51;;;;;;;61.97;42.38;;;;;;;5.70;72.92;102783.63;5010679;28;20373;-85
2022/01/19 09:24:19;;;;;;;63.95;41.97;;;;;;;5.37;73.06;102718.91;5011491;28;20057;-86
2022/01/19 09:26:46;;;;;;;58.22;42.80;;;;;;;6.19;73.08;102845.28;5011310;28;20084;-82
2022/01/19 09:29:13;;;;;;;65.88;43.55;;;;;;;6.55;72.35;102900.31;5013361;28;20045;-82
2022/01/19 09:31:43;;;;;;;67.43;43.75;;;;;;;6.50;71.92;102891.69;5031539;28;20080;-85
2022/01/19 09:34:15;;;;;;;65.05;43.58;;;;;;;6.31;72.27;102870.38;5032899;28;20053;-83
2022/01/19 09:36:46;;;;;;;63.17;46.22;;;;;;;6.49;72.72;102894.41;5009812;28;20057;-81
2022/01/19 09:39:23;;;;;;;71.78;46.90;;;;;;;6.57;73.10;102895.84;5008686;28;20045;-83
2022/01/19 09:41:51;;;;;;;62.75;44.90;;;;;;;6.53;72.53;102877.53;5024433;28;20050;-82
2022/01/19 09:44:22;;;;;;;64.30;45.08;;;;;;;5.74;72.23;102737.81;5007683;28;20436;-85
2022/01/19 09:46:50;;;;;;;68.13;44.60;;;;;;;6.38;71.88;102823.53;5024209;28;20136;-84
2022/01/19 09:49:18;;;;;;;67.28;47.95;;;;;;;6.73;72.58;102892.66;5007989;28;20080;-84
2022/01/19 09:51:50;;;;;;;71.43;47.38;;;;;;;6.71;72.56;102894.50;5025163;28;20386;-83
2022/01/19 09:54:23;;;;;;;72.15;46.83;;;;;;;6.71;72.35;102874.22;5025741;28;20118;-82
2022/01/19 09:56:51;;;;;;;68.25;45.83;;;;;;;6.61;72.65;102857.88;5025354;28;20049;-83
2022/01/19 09:59:19;;;;;;;70.38;46.78;;;;;;;6.42;72.71;102815.44;5025521;28;20472;-83
2022/01/19 10:02:01;;;;;;;70.32;48.00;;;;;;;6.74;73.00;102852.13;5007075;28;20486;-84
2022/01/19 10:04:34;;;;;;;66.72;46.72;;;;;;;6.92;72.46;102876.97;5007285;28;20049;-84
2022/01/19 10:07:19;;;;;;;69.25;46.33;;;;;;;6.96;71.73;102873.31;5008524;28;20053;-81
2022/01/19 10:10:08;;;;;;;72.82;47.67;;;;;;;6.89;71.40;102856.84;5008108;28;20060;-81
2022/01/19 10:18:26;;;;;;;74.15;46.42;;;;;;;6.79;72.01;102824.63;5024876;28;20416;-83
2022/01/19 10:21:18;;;;;;;;;;;;;;;6.96;72.11;102853.06;5008880;28;20511;-83
2022/01/19 10:23:46;;;;;;;70.07;46.97;;;;;;;6.54;71.75;102769.28;5007575;28;19976;-84
2022/01/19 10:26:23;;;;;;;70.90;47.05;;;;;;;6.78;71.81;102801.81;5007573;28;20311;-83
2022/01/19 10:29:10;;;;;;;72.90;49.25;;;;;;;7.01;72.21;102842.31;5007525;28;20057;-84
2022/01/19 10:31:40;;;;;;;64.47;45.55;;;;;;;7.05;72.21;102831.56;5006723;28;20058;-82
2022/01/19 10:34:10;;;;;;;73.38;47.20;;;;;;;7.10;72.17;102835.84;5024839;28;20099;-82
2022/01/19 10:36:45;;;;;;;74.28;48.33;;;;;;;6.56;72.26;102742.84;5006920;28;20367;-84
2022/01/19 10:39:14;;;;;;;69.47;46.67;;;;;;;7.00;72.15;102796.56;5006717;28;20046;-80
2022/01/19 10:42:04;;;;;;;70.55;46.55;;;;;;;7.23;71.42;102823.84;5007505;28;20046;-83
2022/01/19 10:44:41;;;;;;;66.22;46.72;;;;;;;7.03;71.13;102770.03;5007438;28;20045;-82
2022/01/19 10:47:49;;;;;;;66.15;46.03;;;;;;;7.23;71.02;102805.34;5025210;28;20049;-82
2022/01/19 10:50:21;;;;;;;67.60;46.38;;;;;;;7.29;71.36;102802.50;5007309;28;20616;-80
2022/01/19 10:52:49;;;;;;;73.30;45.33;;;;;;;7.33;71.21;102803.22;5007241;28;20045;-83
2022/01/19 10:55:19;;;;;;;71.05;46.15;;;;;;;7.44;70.77;102801.84;5006705;28;20078;-82
2022/01/19 10:57:50;;;;;;;65.32;44.60;;;;;;;7.28;70.53;102776.97;5007195;28;20563;-80
2022/01/19 11:00:33;;;;;;;79.53;47.65;;;;;;;7.25;70.71;102766.53;5006751;28;20053;-82
2022/01/19 11:03:19;;;;;;;66.93;45.38;;;;;;;7.11;70.89;102739.81;5015314;28;20412;-80
2022/01/19 11:05:47;;;;;;;68.80;47.97;;;;;;;6.97;71.12;102706.91;5032600;28;20080;-80
2022/01/19 11:08:16;;;;;;;66.50;47.95;;;;;;;7.36;70.83;102766.97;5006931;28;20172;-83
2022/01/19 11:10:48;;;;;;;68.93;46.67;;;;;;;6.74;70.51;102657.66;5024030;28;20388;-82
2022/01/19 11:16:07;;;;;;;73.57;47.80;;;;;;;7.15;70.00;102699.16;5029856;28;20148;-79
2022/01/19 11:18:37;;;;;;;103.82;85.80;;;;;;;6.71;70.54;102617.31;5026020;28;20513;-81
2022/01/19 11:21:09;;;;;;;80.15;53.13;;;;;;;7.16;70.67;102693.81;5026550;28;20052;-83
2022/01/19 11:24:06;;;;;;;73.13;47.67;;;;;;;7.66;70.44;102748.97;5026217;28;20265;-82
2022/01/19 11:26:41;;;;;;;62.13;46.15;;;;;;;7.27;69.97;102674.88;5029364;28;20056;-82
2022/01/19 11:29:21;;;;;;;71.03;47.53;;;;;;;7.63;69.62;102716.53;5006319;28;20053;-82
2022/01/19 11:31:51;;;;;;;67.03;46.13;;;;;;;7.75;70.02;102731.84;5005979;28;20398;-81
2022/01/19 11:34:49;;;;;;;69.97;43.45;;;;;;;7.52;69.00;102671.16;5012670;28;20160;-80
2022/01/19 11:37:35;;;;;;;61.63;43.88;;;;;;;7.79;68.03;102716.69;5026392;28;20445;-80
2022/01/19 11:40:15;;;;;;;69.13;44.60;;;;;;;7.80;68.57;102713.16;5030116;28;20056;-81
2022/01/19 11:42:43;;;;;;;66.82;44.00;;;;;;;7.80;68.68;102708.72;5030510;28;20131;-82
2022/01/19 11:45:38;;;;;;;67.13;45.15;;;;;;;7.85;68.90;102711.16;5022721;28;20056;-82
2022/01/19 11:48:20;;;;;;;68.15;44.65;;;;;;;7.92;68.81;102702.88;5023593;28;20512;-81
2022/01/19 11:50:52;;;;;;;63.35;44.47;;;;;;;8.00;68.09;102704.34;5032278;28;20063;-82
2022/01/19 11:53:19;;;;;;;61.80;42.80;;;;;;;7.89;68.07;102675.72;5048790;28;20076;-81
2022/01/19 11:56:11;;;;;;;65.97;43.67;;;;;;;7.99;67.89;102689.41;5030093;28;20051;-81
2022/01/19 11:58:38;;;;;;;62.38;43.45;;;;;;;7.72;67.65;102647.38;5029541;28;20485;-82
2022/01/19 12:01:22;;;;;;;65.40;43.88;;;;;;;7.68;67.41;102619.34;5027098;28;20435;-82
2022/01/19 12:03:49;;;;;;;66.22;44.40;;;;;;;7.81;67.63;102640.81;5032689;28;20091;-83
2022/01/19 12:06:35;;;;;;;63.53;42.00;;;;;;;7.97;67.90;102662.16;5011667;28;20057;-79
2022/01/19 12:09:04;;;;;;;66.53;44.40;;;;;;;7.66;67.57;102605.34;5009573;28;20046;-82
2022/01/19 12:11:35;;;;;;;62.92;43.17;;;;;;;7.98;68.24;102654.13;5025926;28;20068;-78
2022/01/19 12:14:12;;;;;;;65.53;45.30;;;;;;;8.11;67.72;102654.44;5009611;28;20045;-81
2022/01/19 12:16:58;;;;;;;70.68;45.85;;;;;;;8.10;67.71;102636.84;5026597;28;20085;-79
2022/01/19 12:19:28;;;;;;;63.40;42.05;;;;;;;8.27;67.07;102655.44;5026261;28;20062;-81
2022/01/19 12:22:02;;;;;;;61.10;41.65;;;;;;;8.24;66.33;102639.72;5026248;28;20148;-81
2022/01/19 12:24:44;;;;;;;65.00;45.33;;;;;;;8.10;67.19;102631.56;5008624;28;20068;-82
2022/01/19 12:27:15;;;;;;;67.05;45.03;;;;;;;7.84;67.44;102596.59;5028313;28;20061;-81
2022/01/19 12:29:43;;;;;;;65.68;44.58;;;;;;;8.14;67.50;102622.56;5008823;28;20132;-80
2022/01/19 12:32:16;;;;;;;61.58;42.53;;;;;;;7.69;67.44;102541.75;5026926;28;20136;-81
2022/01/19 12:34:44;;;;;;;65.40;44.15;;;;;;;8.28;66.89;102612.19;5009321;28;20085;-82
2022/01/19 12:37:30;;;;;;;70.05;46.88;;;;;;;8.24;66.73;102600.03;5009197;28;20131;-83
2022/01/19 12:40:00;;;;;;;66.55;45.13;;;;;;;7.92;66.53;102540.72;5008744;28;20484;-83
2022/01/19 12:42:42;;;;;;;66.60;46.17;;;;;;;8.09;66.27;102546.06;5025387;28;20298;-82
2022/01/19 12:45:19;;;;;;;64.13;43.38;;;;;;;8.30;66.02;102575.06;5008931;28;20473;-82
2022/01/19 12:47:52;;;;;;;74.95;47.67;;;;;;;7.42;66.35;102444.31;5008992;28;20119;-80
2022/01/19 12:50:21;;;;;;;72.40;49.67;;;;;;;8.22;66.26;102572.78;5027838;28;20446;-80
2022/01/19 12:52:52;;;;;;;68.72;46.50;;;;;;;8.32;66.75;102562.59;5028328;28;20050;-81
2022/01/19 12:55:24;;;;;;;67.78;45.97;;;;;;;8.30;66.40;102557.41;5009727;28;20454;-83
2022/01/19 12:57:54;;;;;;;66.80;44.83;;;;;;;8.40;66.35;102552.56;5009080;28;20131;-84
2022/01/19 13:00:27;;;;;;;65.88;42.92;;;;;;;8.31;66.18;102537.94;5010645;28;20053;-81
2022/01/19 13:02:57;;;;;;;61.53;45.35;;;;;;;8.28;66.11;102514.28;5012640;28;20049;-83
2022/01/19 13:05:28;;;;;;;67.43;46.42;;;;;;;8.35;66.13;102531.56;5010509;28;20104;-84